createdAt,value
2023-01-11T00:00:42.172Z,60.63
2023-01-11T00:03:09.231Z,61.00
2023-01-11T00:05:43.385Z,60.88
2023-01-11T00:08:11.350Z,62.27
2023-01-11T00:10:38.318Z,60.68
2023-01-11T00:13:05.563Z,61.27
2023-01-11T00:15:32.774Z,61.57
2023-01-11T00:17:59.820Z,60.67
2023-01-11T00:20:26.648Z,60.75
2023-01-11T00:22:53.418Z,60.87
2023-01-11T00:25:20.286Z,60.51
2023-01-11T00:27:49.507Z,60.97
2023-01-11T00:30:18.362Z,62.09
2023-01-11T00:32:45.558Z,60.96
2023-01-11T00:35:13.121Z,61.42
2023-01-11T00:37:40.440Z,61.63
2023-01-11T00:40:08.376Z,61.99
2023-01-11T00:42:53.500Z,61.67
2023-01-11T00:45:38.859Z,61.35
2023-01-11T00:48:07.025Z,61.64
2023-01-11T00:50:37.038Z,62.53
2023-01-11T00:53:04.895Z,60.52
2023-01-11T00:55:32.298Z,61.82
2023-01-11T00:57:59.946Z,60.65
2023-01-11T01:00:28.170Z,60.56
2023-01-11T01:02:55.084Z,60.48
2023-01-11T01:05:21.839Z,59.44
2023-01-11T01:07:48.667Z,61.28
2023-01-11T01:10:17.700Z,60.96
2023-01-11T01:13:03.848Z,60.44
2023-01-11T01:15:30.998Z,61.44
2023-01-11T01:17:57.875Z,60.27
2023-01-11T01:20:24.964Z,60.36
2023-01-11T01:22:52.030Z,60.35
2023-01-11T01:25:19.148Z,60.56
2023-01-11T01:27:45.928Z,59.70
2023-01-11T01:30:13.293Z,59.75
2023-01-11T01:32:40.177Z,60.29
2023-01-11T01:35:08.263Z,59.94
2023-01-11T01:38:08.762Z,60.29
2023-01-11T01:40:47.115Z,60.34
2023-01-11T01:43:17.086Z,59.39
2023-01-11T01:45:43.961Z,59.03
2023-01-11T01:48:13.730Z,60.67
2023-01-11T01:50:48.961Z,60.48
2023-01-11T01:53:28.486Z,59.48
2023-01-11T01:56:00.569Z,60.26
2023-01-11T01:58:33.028Z,60.58
2023-01-11T02:01:22.664Z,60.43
2023-01-11T02:03:51.546Z,60.88
2023-01-11T02:06:21.382Z,61.07
2023-01-11T02:08:53.534Z,60.36
2023-01-11T02:11:32.665Z,59.94
2023-01-11T02:14:03.035Z,60.67
2023-01-11T02:16:30.405Z,60.70
2023-01-11T02:18:58.215Z,60.51
2023-01-11T02:21:34.493Z,60.82
2023-01-11T02:24:42.629Z,60.51
2023-01-11T02:27:29.091Z,60.90
2023-01-11T02:30:29.760Z,61.47
2023-01-11T02:33:27.095Z,60.89
2023-01-11T02:36:05.635Z,60.93
2023-01-11T02:38:39.783Z,61.31
2023-01-11T02:41:25.986Z,60.55
2023-01-11T02:44:31.430Z,60.68
2023-01-11T02:47:07.702Z,61.01
2023-01-11T02:49:51.885Z,60.81
2023-01-11T02:52:26.754Z,60.96
2023-01-11T02:54:58.442Z,61.12
2023-01-11T02:57:29.569Z,61.12
2023-01-11T02:59:58.120Z,61.24
2023-01-11T03:02:25.383Z,61.26
2023-01-11T03:04:52.227Z,60.83
2023-01-11T03:07:18.866Z,61.12
2023-01-11T03:09:52.620Z,61.62
2023-01-11T03:12:56.434Z,61.46
2023-01-11T03:16:02.591Z,61.47
2023-01-11T03:18:41.103Z,60.94
2023-01-11T03:21:33.935Z,61.28
2023-01-11T03:24:31.038Z,61.19
2023-01-11T03:27:29.290Z,60.86
2023-01-11T03:30:12.475Z,60.84
2023-01-11T03:32:41.911Z,60.52
2023-01-11T03:35:46.642Z,60.12
2023-01-11T03:38:24.981Z,60.80
2023-01-11T03:41:05.076Z,61.22
2023-01-11T03:43:36.646Z,61.66
2023-01-11T03:46:14.937Z,61.11
2023-01-11T03:48:41.634Z,60.99
2023-01-11T03:51:14.259Z,61.25
2023-01-11T03:53:44.474Z,61.15
2023-01-11T03:56:14.226Z,61.57
2023-01-11T03:58:41.027Z,60.95
2023-01-11T04:01:08.053Z,60.79
2023-01-11T04:03:34.794Z,60.47
2023-01-11T04:06:02.567Z,61.25
2023-01-11T04:08:31.084Z,61.51
2023-01-11T04:10:58.173Z,60.13
2023-01-11T04:13:24.951Z,60.93
2023-01-11T04:15:54.380Z,60.18
2023-01-11T04:18:21.147Z,60.37
2023-01-11T04:20:47.859Z,61.53
2023-01-11T04:23:15.301Z,60.20
2023-01-11T04:25:41.989Z,60.99
2023-01-11T04:28:08.718Z,60.66
2023-01-11T04:30:36.088Z,60.94
2023-01-11T04:33:02.918Z,60.75
2023-01-11T04:35:29.650Z,61.00
2023-01-11T04:37:57.537Z,60.46
2023-01-11T04:40:25.564Z,60.61
2023-01-11T04:42:52.328Z,60.93
2023-01-11T04:45:19.187Z,61.19
2023-01-11T04:47:45.897Z,61.34
2023-01-11T04:50:12.897Z,61.22
2023-01-11T04:52:41.709Z,61.29
2023-01-11T04:55:09.315Z,60.96
2023-01-11T04:57:36.527Z,61.26
2023-01-11T05:00:08.691Z,61.33
2023-01-11T05:02:35.466Z,61.30
2023-01-11T05:05:02.471Z,61.69
2023-01-11T05:07:30.274Z,61.71
2023-01-11T05:09:56.983Z,61.40
2023-01-11T05:12:23.887Z,60.62
2023-01-11T05:14:50.646Z,61.58
2023-01-11T05:17:17.705Z,61.99
2023-01-11T05:19:44.423Z,62.74
2023-01-11T05:22:11.280Z,62.15
2023-01-11T05:24:37.994Z,62.21
2023-01-11T05:27:04.830Z,62.55
2023-01-11T05:29:31.564Z,62.96
2023-01-11T05:31:58.346Z,62.97
2023-01-11T05:34:25.186Z,63.52
2023-01-11T05:36:51.927Z,63.32
2023-01-11T05:39:18.652Z,63.89
2023-01-11T05:41:45.385Z,63.82
2023-01-11T05:44:32.030Z,63.28
2023-01-11T05:46:59.297Z,63.59
2023-01-11T05:49:26.218Z,63.42
2023-01-11T05:51:52.951Z,63.70
2023-01-11T05:54:19.686Z,63.82
2023-01-11T05:56:46.590Z,63.50
2023-01-11T05:59:13.326Z,63.92
2023-01-11T06:01:40.263Z,64.33
2023-01-11T06:04:08.465Z,64.06
2023-01-11T06:06:35.496Z,64.87
2023-01-11T06:09:02.351Z,64.54
2023-01-11T06:11:29.150Z,64.42
2023-01-11T06:13:56.128Z,64.66
2023-01-11T06:16:23.864Z,64.44
2023-01-11T06:18:53.072Z,64.64
2023-01-11T06:21:20.726Z,64.58
2023-01-11T06:23:50.850Z,64.84
2023-01-11T06:26:20.422Z,65.05
2023-01-11T06:28:47.563Z,64.86
2023-01-11T06:31:17.301Z,65.23
2023-01-11T06:33:45.099Z,65.14
2023-01-11T06:36:13.139Z,64.98
2023-01-11T06:38:39.902Z,64.95
2023-01-11T06:41:10.945Z,64.98
2023-01-11T06:43:41.072Z,65.03
2023-01-11T06:46:12.620Z,65.01
2023-01-11T06:48:39.533Z,65.79
2023-01-11T06:51:06.353Z,65.11
2023-01-11T06:53:33.185Z,64.65
2023-01-11T06:56:00.256Z,64.81
2023-01-11T06:58:27.240Z,65.56
2023-01-11T07:00:57.166Z,65.47
2023-01-11T07:03:25.760Z,65.59
2023-01-11T07:05:54.484Z,65.57
2023-01-11T07:08:21.362Z,65.68
2023-01-11T07:10:48.611Z,65.33
2023-01-11T07:13:17.254Z,65.59
2023-01-11T07:15:46.103Z,65.74
2023-01-11T07:18:12.896Z,65.45
2023-01-11T07:20:40.760Z,65.89
2023-01-11T07:23:07.823Z,65.94
2023-01-11T07:25:34.989Z,65.98
2023-01-11T07:28:06.876Z,65.66
2023-01-11T07:30:44.773Z,65.18
2023-01-11T07:33:22.407Z,66.00
2023-01-11T07:35:49.673Z,66.05
2023-01-11T07:38:16.430Z,66.52
2023-01-11T07:40:43.249Z,65.79
2023-01-11T07:43:14.901Z,66.64
2023-01-11T07:45:49.275Z,66.63
2023-01-11T07:48:21.308Z,66.24
2023-01-11T07:50:48.909Z,66.19
2023-01-11T07:53:15.793Z,67.24
2023-01-11T07:55:42.802Z,66.92
2023-01-11T07:58:12.825Z,66.71
2023-01-11T08:00:43.730Z,67.30
2023-01-11T08:03:10.741Z,66.65
2023-01-11T08:05:38.329Z,66.97
2023-01-11T08:08:06.001Z,67.04
2023-01-11T08:10:33.020Z,66.71
2023-01-11T08:13:18.713Z,67.09
2023-01-11T08:15:45.619Z,66.71
2023-01-11T08:18:13.202Z,66.23
2023-01-11T08:20:40.692Z,66.90
2023-01-11T08:23:10.091Z,66.25
2023-01-11T08:25:37.700Z,66.55
2023-01-11T08:28:06.810Z,67.06
2023-01-11T08:30:34.210Z,66.50
2023-01-11T08:33:02.390Z,67.17
2023-01-11T08:35:30.251Z,66.83
2023-01-11T08:37:57.049Z,66.44
2023-01-11T08:40:25.554Z,66.83
2023-01-11T08:42:59.199Z,66.90
2023-01-11T08:45:26.121Z,66.19
2023-01-11T08:47:53.298Z,66.03
2023-01-11T08:50:22.386Z,65.37
2023-01-11T08:52:51.273Z,65.90
2023-01-11T08:55:18.997Z,65.49
2023-01-11T08:57:46.040Z,64.83
2023-01-11T09:00:13.548Z,64.69
2023-01-11T09:02:40.592Z,65.12
2023-01-11T09:05:07.801Z,65.45
2023-01-11T09:07:34.538Z,65.11
2023-01-11T09:10:01.312Z,65.31
2023-01-11T09:12:28.162Z,64.75
2023-01-11T09:14:54.862Z,64.72
2023-01-11T09:17:21.712Z,64.62
2023-01-11T09:19:48.499Z,64.32
2023-01-11T09:22:15.480Z,64.12
2023-01-11T09:24:42.216Z,63.87
2023-01-11T09:27:09.196Z,64.02
2023-01-11T09:29:37.364Z,63.77
2023-01-11T09:32:05.012Z,64.57
2023-01-11T09:34:31.870Z,64.82
2023-01-11T09:37:00.783Z,65.37
2023-01-11T09:39:28.807Z,65.87
2023-01-11T09:42:15.915Z,66.34
2023-01-11T09:44:54.215Z,65.93
2023-01-11T09:47:46.982Z,66.41
2023-01-11T09:50:19.790Z,66.12
2023-01-11T09:52:52.772Z,65.79
2023-01-11T09:55:29.856Z,65.81
2023-01-11T09:58:06.112Z,66.31
2023-01-11T10:00:49.214Z,66.94
2023-01-11T10:03:45.544Z,66.78
2023-01-11T10:06:20.696Z,66.60
2023-01-11T10:18:27.593Z,67.17
2023-01-11T10:19:10.293Z,67.01
2023-01-11T10:21:44.251Z,66.82
2023-01-11T10:24:25.244Z,65.85
2023-01-11T10:26:59.906Z,66.69
2023-01-11T10:30:17.758Z,66.89
2023-01-11T10:33:05.482Z,66.92
2023-01-11T10:35:59.060Z,67.39
2023-01-11T10:38:57.754Z,66.34
2023-01-11T10:41:37.638Z,66.82
2023-01-11T10:44:19.077Z,67.54
2023-01-11T10:46:52.830Z,67.80
2023-01-11T10:49:28.667Z,67.23
2023-01-11T10:52:06.222Z,67.30
2023-01-11T10:54:36.732Z,67.33
2023-01-11T10:58:01.577Z,67.28
2023-01-11T11:00:37.465Z,67.61
2023-01-11T11:03:15.159Z,67.95
2023-01-11T11:06:00.558Z,68.10
2023-01-11T11:08:41.927Z,67.93
2023-01-11T11:11:17.085Z,67.79
2023-01-11T11:14:02.015Z,68.41
2023-01-11T11:16:31.562Z,68.83
2023-01-11T11:18:59.176Z,68.53
2023-01-11T11:21:30.447Z,69.33
2023-01-11T11:24:02.503Z,68.75
2023-01-11T11:26:39.557Z,68.97
2023-01-11T11:29:08.995Z,69.18
2023-01-11T11:31:42.216Z,69.40
2023-01-11T11:34:18.587Z,68.71
2023-01-11T11:36:48.910Z,68.76
2023-01-11T11:39:31.978Z,68.80
2023-01-11T11:42:16.162Z,69.54
2023-01-11T11:44:42.965Z,69.54
2023-01-11T11:47:16.847Z,69.48
2023-01-11T11:49:44.095Z,69.32
2023-01-11T11:52:16.624Z,68.86
2023-01-11T11:54:52.819Z,69.06
2023-01-11T11:57:31.897Z,69.53
2023-01-11T12:00:05.701Z,70.03
2023-01-11T12:02:36.151Z,69.92
2023-01-11T12:05:10.333Z,69.58
2023-01-11T12:07:54.362Z,69.83
2023-01-11T12:10:28.037Z,70.36
2023-01-11T12:13:03.167Z,69.63
2023-01-11T12:15:34.335Z,69.93
2023-01-11T12:18:27.515Z,69.81
2023-01-11T12:20:55.352Z,69.65
2023-01-11T12:23:24.385Z,70.38
2023-01-11T12:26:09.475Z,70.32
2023-01-11T12:28:48.174Z,70.47
2023-01-11T12:31:39.344Z,71.67
2023-01-11T12:34:11.861Z,70.92
2023-01-11T12:36:51.318Z,70.27
2023-01-11T12:39:31.974Z,70.27
2023-01-11T12:42:17.398Z,69.44
2023-01-11T12:45:08.416Z,69.19
2023-01-11T12:47:56.823Z,69.20
2023-01-11T12:50:46.587Z,68.98
2023-01-11T12:53:25.639Z,68.37
2023-01-11T12:56:00.462Z,68.88
2023-01-11T12:58:50.233Z,68.11
2023-01-11T13:01:27.119Z,68.14
2023-01-11T13:04:24.684Z,68.49
2023-01-11T13:07:06.448Z,68.51
2023-01-11T13:09:42.334Z,69.17
2023-01-11T13:12:27.437Z,68.99
2023-01-11T13:14:58.178Z,69.10
2023-01-11T13:17:36.357Z,69.61
2023-01-11T13:20:16.634Z,70.40
2023-01-11T13:22:54.242Z,70.61
2023-01-11T13:25:31.996Z,70.99
2023-01-11T13:28:04.949Z,71.54
2023-01-11T13:30:32.093Z,70.63
2023-01-11T13:33:14.227Z,69.34
2023-01-11T13:35:46.799Z,69.03
2023-01-11T13:38:35.046Z,69.16
2023-01-11T13:41:15.590Z,68.61
2023-01-11T13:43:54.131Z,68.96
2023-01-11T13:46:32.893Z,68.49
2023-01-11T13:49:19.252Z,68.01
2023-01-11T13:51:53.223Z,67.21
2023-01-11T13:54:29.200Z,66.13
2023-01-11T13:57:04.360Z,65.89
2023-01-11T13:59:45.687Z,64.80
2023-01-11T14:02:52.700Z,65.65
2023-01-11T14:05:22.796Z,64.94
2023-01-11T14:08:22.580Z,63.61
2023-01-11T14:11:27.425Z,63.61
2023-01-11T14:14:18.180Z,64.06
2023-01-11T14:16:56.823Z,64.31
2023-01-11T14:19:45.114Z,63.32
2023-01-11T14:22:48.317Z,64.37
2023-01-11T14:25:42.806Z,63.52
2023-01-11T14:28:15.683Z,64.32
2023-01-11T14:31:07.251Z,65.08
2023-01-11T14:33:47.807Z,66.40
2023-01-11T14:36:26.748Z,67.05
2023-01-11T14:39:32.627Z,68.23
2023-01-11T14:42:32.169Z,67.92
2023-01-11T14:45:13.539Z,68.68
2023-01-11T14:47:48.998Z,68.82
2023-01-11T14:50:44.033Z,69.07
2023-01-11T14:53:18.791Z,70.10
2023-01-11T14:55:46.475Z,70.77
2023-01-11T14:58:25.252Z,71.73
2023-01-11T15:00:54.838Z,72.83
2023-01-11T15:03:21.617Z,73.42
2023-01-11T15:06:09.587Z,74.68
2023-01-11T15:08:48.126Z,75.54
2023-01-11T15:11:41.885Z,77.22
2023-01-11T15:14:32.723Z,76.54
2023-01-11T15:17:21.238Z,76.56
2023-01-11T15:19:50.144Z,78.93
2023-01-11T15:22:29.681Z,78.59
2023-01-11T15:25:03.185Z,79.01
2023-01-11T15:27:38.507Z,79.39
2023-01-11T15:30:27.981Z,80.15
2023-01-11T15:33:14.946Z,79.73
2023-01-11T15:35:42.211Z,80.25
2023-01-11T15:38:23.457Z,79.83
2023-01-11T15:40:53.575Z,80.11
2023-01-11T15:43:46.218Z,81.58
2023-01-11T15:46:45.953Z,81.18
2023-01-11T15:49:34.486Z,80.90
2023-01-11T15:52:38.522Z,81.95
2023-01-11T15:55:42.925Z,81.60
2023-01-11T15:58:34.811Z,82.96
2023-01-11T16:01:20.007Z,81.49
2023-01-11T16:03:56.799Z,84.11
2023-01-11T16:06:30.499Z,84.84
2023-01-11T16:09:06.431Z,84.48
2023-01-11T16:12:10.200Z,85.05
2023-01-11T16:15:03.196Z,83.58
2023-01-11T16:17:31.304Z,82.89
2023-01-11T16:19:58.595Z,81.88
2023-01-11T16:22:28.224Z,81.75
2023-01-11T16:25:05.263Z,81.15
2023-01-11T16:27:34.950Z,79.84
2023-01-11T16:30:02.527Z,78.92
2023-01-11T16:32:35.083Z,77.57
2023-01-11T16:35:03.632Z,75.87
2023-01-11T16:37:41.777Z,74.15
2023-01-11T16:40:20.166Z,73.59
2023-01-11T16:42:53.267Z,72.38
2023-01-11T16:45:23.217Z,71.22
2023-01-11T16:48:14.638Z,71.61
2023-01-11T16:50:58.032Z,70.56
2023-01-11T16:53:26.818Z,69.16
2023-01-11T16:55:53.511Z,69.81
2023-01-11T16:58:30.183Z,69.52
2023-01-11T17:01:06.384Z,69.58
2023-01-11T17:03:44.021Z,69.31
2023-01-11T17:06:13.601Z,69.37
2023-01-11T17:08:41.489Z,69.40
2023-01-11T17:11:41.847Z,70.00
2023-01-11T17:14:19.877Z,69.67
2023-01-11T17:16:52.782Z,69.25
2023-01-11T17:19:24.065Z,68.55
2023-01-11T17:22:04.717Z,67.84
2023-01-11T17:24:35.257Z,68.11
2023-01-11T17:27:03.207Z,68.45
2023-01-11T17:29:35.247Z,67.58
2023-01-11T17:32:05.859Z,67.86
2023-01-11T17:34:38.088Z,68.09
2023-01-11T17:37:13.658Z,68.46
2023-01-11T17:39:50.308Z,68.34
2023-01-11T17:42:36.426Z,68.16
2023-01-11T17:45:18.613Z,68.83
2023-01-11T17:47:49.722Z,68.54
2023-01-11T17:50:31.601Z,68.02
2023-01-11T17:53:02.544Z,68.50
2023-01-11T17:55:29.974Z,68.00
2023-01-11T17:58:20.216Z,67.44
2023-01-11T18:01:15.985Z,68.87
2023-01-11T18:03:44.613Z,67.49
2023-01-11T18:06:36.258Z,67.75
2023-01-11T18:09:06.170Z,67.50
2023-01-11T18:11:39.030Z,67.61
2023-01-11T18:14:16.974Z,67.80
2023-01-11T18:17:00.111Z,67.63
2023-01-11T18:19:39.095Z,67.94
2023-01-11T18:22:30.221Z,68.30
2023-01-11T18:25:04.337Z,67.94
2023-01-11T18:27:33.710Z,67.76
2023-01-11T18:30:09.824Z,67.46
2023-01-11T18:32:42.503Z,68.09
2023-01-11T18:35:20.090Z,68.19
2023-01-11T18:37:47.331Z,67.63
2023-01-11T18:40:18.828Z,67.86
2023-01-11T18:42:51.688Z,68.20
2023-01-11T18:45:18.659Z,67.48
2023-01-11T18:47:45.685Z,67.86
2023-01-11T18:50:18.175Z,66.97
2023-01-11T18:52:46.456Z,67.35
2023-01-11T18:55:14.674Z,67.53
2023-01-11T18:57:42.472Z,67.41
2023-01-11T19:00:14.386Z,67.34
2023-01-11T19:02:43.222Z,67.72
2023-01-11T19:05:15.156Z,67.17
2023-01-11T19:07:42.335Z,67.33
2023-01-11T19:10:10.883Z,66.83
2023-01-11T19:12:37.786Z,66.84
2023-01-11T19:15:04.944Z,66.74
2023-01-11T19:17:32.411Z,67.37
2023-01-11T19:19:59.247Z,67.25
2023-01-11T19:22:26.839Z,67.37
2023-01-11T19:24:54.901Z,68.24
2023-01-11T19:27:22.770Z,68.50
2023-01-11T19:29:49.538Z,68.34
2023-01-11T19:32:18.566Z,68.67
2023-01-11T19:34:45.601Z,69.72
2023-01-11T19:37:12.646Z,69.25
2023-01-11T19:39:40.362Z,69.36
2023-01-11T19:42:07.757Z,69.60
2023-01-11T19:44:38.995Z,70.24
2023-01-11T19:47:12.547Z,70.29
2023-01-11T19:49:40.588Z,70.39
2023-01-11T19:52:14.730Z,70.96
2023-01-11T19:54:42.749Z,70.58
2023-01-11T19:57:14.760Z,70.87
2023-01-11T19:59:42.634Z,71.10
2023-01-11T20:02:12.779Z,70.90
2023-01-11T20:04:40.233Z,71.36
2023-01-11T20:07:08.305Z,71.62
2023-01-11T20:09:39.889Z,71.89
2023-01-11T20:12:08.625Z,71.77
2023-01-11T20:14:36.459Z,72.28
2023-01-11T20:17:03.469Z,72.39
2023-01-11T20:19:30.320Z,72.22
2023-01-11T20:21:57.182Z,72.79
2023-01-11T20:24:30.219Z,73.18
2023-01-11T20:27:01.928Z,73.17
2023-01-11T20:29:28.725Z,73.86
2023-01-11T20:31:58.192Z,73.81
2023-01-11T20:34:29.896Z,74.26
2023-01-11T20:36:56.625Z,73.93
2023-01-11T20:39:24.125Z,74.45
2023-01-11T20:41:51.061Z,74.28
2023-01-11T20:44:24.376Z,74.76
2023-01-11T20:46:52.983Z,74.52
2023-01-11T20:49:23.187Z,74.85
2023-01-11T20:51:50.335Z,74.59
2023-01-11T20:54:17.155Z,74.74
2023-01-11T20:56:46.578Z,74.46
2023-01-11T20:59:16.564Z,74.87
2023-01-11T21:01:44.117Z,74.71
2023-01-11T21:04:12.048Z,74.87
2023-01-11T21:06:41.052Z,75.80
2023-01-11T21:09:09.741Z,75.27
2023-01-11T21:14:04.951Z,75.58
2023-01-11T21:16:32.471Z,75.34
2023-01-11T21:19:03.685Z,75.96
2023-01-11T21:21:33.531Z,75.54
2023-01-11T21:24:02.926Z,75.50
2023-01-11T21:26:30.570Z,75.52
2023-01-11T21:28:59.882Z,74.99
2023-01-11T21:31:31.873Z,74.97
2023-01-11T21:34:00.402Z,74.90
2023-01-11T21:36:29.366Z,74.74
2023-01-11T21:38:58.040Z,74.72
2023-01-11T21:41:46.153Z,74.54
2023-01-11T21:44:14.445Z,74.30
2023-01-11T21:46:41.719Z,74.35
2023-01-11T21:49:09.180Z,74.47
2023-01-11T21:51:36.365Z,74.90
2023-01-11T21:54:05.700Z,73.83
2023-01-11T21:56:32.476Z,74.54
2023-01-11T21:58:59.424Z,74.42
2023-01-11T22:01:26.313Z,73.65
2023-01-11T22:03:53.548Z,73.49
2023-01-11T22:06:20.391Z,73.32
2023-01-11T22:08:47.574Z,73.52
2023-01-11T22:11:16.279Z,73.96
2023-01-11T22:13:43.425Z,73.81
2023-01-11T22:16:15.254Z,73.90
2023-01-11T22:18:43.403Z,73.33
2023-01-11T22:21:14.507Z,73.39
2023-01-11T22:23:45.459Z,72.80
2023-01-11T22:26:13.503Z,73.10
2023-01-11T22:29:00.133Z,73.62
2023-01-11T22:31:28.459Z,73.38
2023-01-11T22:33:56.088Z,73.13
2023-01-11T22:36:26.002Z,72.83
2023-01-11T22:38:53.363Z,72.98
2023-01-11T22:41:20.824Z,72.82
2023-01-11T22:43:47.665Z,72.98
2023-01-11T22:46:17.491Z,72.87
2023-01-11T22:48:44.727Z,72.66
2023-01-11T22:51:14.467Z,73.20
2023-01-11T22:53:43.738Z,72.65
2023-01-11T22:56:12.445Z,72.96
2023-01-11T22:58:39.675Z,73.15
2023-01-11T23:01:30.226Z,73.31
2023-01-11T23:03:57.634Z,73.23
2023-01-11T23:06:36.767Z,73.29
2023-01-11T23:09:05.185Z,73.39
2023-01-11T23:11:54.360Z,73.12
2023-01-11T23:14:21.452Z,73.84
2023-01-11T23:16:50.636Z,73.69
2023-01-11T23:19:20.121Z,72.95
2023-01-11T23:21:47.852Z,72.86
2023-01-11T23:24:16.465Z,73.12
2023-01-11T23:26:44.256Z,73.04
2023-01-11T23:29:11.232Z,73.82
2023-01-11T23:31:39.028Z,73.30
2023-01-11T23:34:09.884Z,73.52
2023-01-11T23:36:39.681Z,73.83
2023-01-11T23:39:18.779Z,74.04
2023-01-11T23:42:07.800Z,73.80
2023-01-11T23:44:37.191Z,74.24
2023-01-11T23:47:22.195Z,73.75
2023-01-11T23:49:50.003Z,73.82
2023-01-11T23:52:18.456Z,74.01
2023-01-11T23:54:45.864Z,74.33
2023-01-11T23:57:14.043Z,74.12
2023-01-11T23:59:41.926Z,74.17
